Time;durP1;ratioP1;P1;durP2;ratioP2;P2;SDS_P1;SDS_P2;PMS_P1;PMS_P2;Temp;Humidity;BMP_temperature;BMP_pressure;BME280_temperature;BME280_humidity;BME280_pressure;Samples;Min_cycle;Max_cycle;Signal;HPM_P1;HPM_P2
2023/06/06 00:01:51;;;;;;;9.40;4.07;;;11.70;99.90;;;;;;5093629;28;20044;-81
2023/06/06 00:04:16;;;;;;;6.82;3.88;;;11.70;99.90;;;;;;5093283;28;20047;-81
2023/06/06 00:06:44;;;;;;;6.53;3.45;;;11.80;99.90;;;;;;5093390;28;20568;-81
2023/06/06 00:09:10;;;;;;;8.15;3.20;;;11.80;99.90;;;;;;5093017;28;20106;-81
2023/06/06 00:11:39;;;;;;;6.88;3.33;;;11.80;99.90;;;;;;5093142;28;20475;-81
2023/06/06 00:14:07;;;;;;;7.88;3.28;;;11.80;99.90;;;;;;5093147;28;20403;-81
2023/06/06 00:16:34;;;;;;;11.35;3.92;;;11.80;99.90;;;;;;5093115;28;20051;-81
2023/06/06 00:19:03;;;;;;;11.57;4.38;;;11.80;99.90;;;;;;5093328;28;20052;-82
2023/06/06 00:21:32;;;;;;;9.90;3.67;;;11.80;99.90;;;;;;5092891;28;20032;-81
2023/06/06 00:23:59;;;;;;;11.80;4.07;;;11.80;99.90;;;;;;5105635;28;20128;-81
2023/06/06 00:26:26;;;;;;;7.90;3.42;;;11.80;99.90;;;;;;5113284;28;20040;-81
2023/06/06 00:28:52;;;;;;;7.85;3.10;;;11.80;99.90;;;;;;5114486;28;20384;-81
2023/06/06 00:31:18;;;;;;;10.82;3.15;;;11.90;99.90;;;;;;5113217;28;20096;-81
2023/06/06 00:33:44;;;;;;;10.27;4.25;;;11.80;99.90;;;;;;5113227;28;20055;-82
2023/06/06 00:36:10;;;;;;;8.68;3.58;;;11.80;99.90;;;;;;5113076;28;20075;-81
2023/06/06 00:38:36;;;;;;;8.93;3.78;;;11.70;99.90;;;;;;5112814;28;20047;-82
2023/06/06 00:41:08;;;;;;;7.65;4.68;;;11.70;99.90;;;;;;5113186;28;20371;-82
2023/06/06 00:43:33;;;;;;;10.95;3.72;;;11.70;99.90;;;;;;5113267;28;20498;-82
2023/06/06 00:45:59;;;;;;;8.02;4.03;;;11.70;99.90;;;;;;5112711;28;20076;-86
2023/06/06 00:48:25;;;;;;;9.75;3.30;;;11.70;99.90;;;;;;5112600;28;20108;-82
2023/06/06 00:50:53;;;;;;;11.40;3.80;;;11.70;99.90;;;;;;5113114;28;20075;-82
2023/06/06 00:53:20;;;;;;;8.77;4.15;;;11.80;99.90;;;;;;5113129;28;20051;-82
2023/06/06 00:55:46;;;;;;;7.28;3.35;;;11.80;99.90;;;;;;5112953;28;20043;-81
2023/06/06 00:58:13;;;;;;;9.13;3.83;;;11.80;99.90;;;;;;5112880;28;20479;-82
2023/06/06 01:00:40;;;;;;;9.70;3.45;;;11.80;99.90;;;;;;5113098;28;20094;-82
2023/06/06 01:03:09;;;;;;;9.13;4.13;;;11.70;99.90;;;;;;5112911;28;20493;-82
2023/06/06 01:05:39;;;;;;;10.45;4.13;;;11.70;99.90;;;;;;5112942;28;20478;-81
2023/06/06 01:08:05;;;;;;;8.38;3.25;;;11.60;99.90;;;;;;5112863;28;20048;-81
2023/06/06 01:10:34;;;;;;;7.22;3.40;;;11.70;99.90;;;;;;5112785;28;20055;-81
2023/06/06 01:13:11;;;;;;;6.22;3.85;;;11.70;99.90;;;;;;5113985;28;20039;-81
2023/06/06 01:15:47;;;;;;;10.48;3.78;;;11.70;99.90;;;;;;5113751;28;20368;-81
2023/06/06 01:18:14;;;;;;;10.85;3.47;;;11.80;99.90;;;;;;5112915;28;20459;-81
2023/06/06 01:20:41;;;;;;;10.05;3.53;;;11.80;99.90;;;;;;5112743;28;20096;-81
2023/06/06 01:23:10;;;;;;;6.93;3.22;;;11.80;99.90;;;;;;5112877;28;20471;-81
2023/06/06 01:25:37;;;;;;;8.52;3.75;;;11.80;99.90;;;;;;5112377;28;20432;-81
2023/06/06 01:28:04;;;;;;;8.95;3.83;;;11.80;99.90;;;;;;5112351;28;20039;-81
2023/06/06 01:30:33;;;;;;;7.88;3.33;;;11.80;99.90;;;;;;5112737;28;20039;-81
2023/06/06 01:33:22;;;;;;;11.40;3.03;;;11.80;99.90;;;;;;5112793;28;20043;-81
2023/06/06 01:36:18;;;;;;;11.60;3.60;;;11.80;99.90;;;;;;5112809;28;20368;-82
2023/06/06 01:38:50;;;;;;;6.65;2.90;;;11.80;99.90;;;;;;5112397;28;20492;-82
2023/06/06 01:41:19;;;;;;;9.10;4.10;;;11.80;99.90;;;;;;5112713;28;20050;-81
2023/06/06 01:43:46;;;;;;;9.88;3.35;;;11.80;99.90;;;;;;5112426;28;20043;-82
2023/06/06 01:46:13;;;;;;;11.43;4.20;;;11.90;99.90;;;;;;5112082;28;20047;-81
2023/06/06 01:48:41;;;;;;;12.93;4.07;;;11.80;99.90;;;;;;5112320;28;20043;-81
2023/06/06 01:51:10;;;;;;;8.93;3.45;;;11.80;99.90;;;;;;5115955;28;20131;-82
2023/06/06 01:53:36;;;;;;;8.52;3.53;;;11.80;99.90;;;;;;5116455;28;20048;-82
2023/06/06 01:56:02;;;;;;;9.27;3.92;;;11.80;99.90;;;;;;5116172;28;20093;-81
2023/06/06 01:58:27;;;;;;;10.57;4.25;;;11.80;99.90;;;;;;5116390;28;20043;-81
2023/06/06 02:00:53;;;;;;;9.65;3.50;;;11.90;99.90;;;;;;5116377;28;20075;-81
2023/06/06 02:03:20;;;;;;;9.18;3.63;;;11.90;99.90;;;;;;5105443;28;20040;-81
2023/06/06 02:05:45;;;;;;;10.23;3.75;;;12.00;99.90;;;;;;5095539;28;20083;-81
2023/06/06 02:08:11;;;;;;;6.13;3.35;;;11.90;99.90;;;;;;5095410;28;20071;-81
2023/06/06 02:10:37;;;;;;;11.48;3.85;;;11.80;99.90;;;;;;5095470;28;20059;-82
2023/06/06 02:13:03;;;;;;;11.20;3.50;;;11.90;99.90;;;;;;5095555;28;20047;-81
2023/06/06 02:15:29;;;;;;;9.25;4.47;;;11.80;99.90;;;;;;5095423;28;20097;-81
2023/06/06 02:17:55;;;;;;;6.97;3.65;;;11.80;99.90;;;;;;5095071;28;20093;-80
2023/06/06 02:20:21;;;;;;;6.70;3.97;;;11.90;99.90;;;;;;5095214;28;20071;-81
2023/06/06 02:22:47;;;;;;;11.27;4.80;;;12.00;99.90;;;;;;5095484;28;20036;-81
2023/06/06 02:25:13;;;;;;;10.27;3.40;;;12.00;99.90;;;;;;5095172;28;20093;-82
2023/06/06 02:27:38;;;;;;;13.45;4.18;;;11.90;99.90;;;;;;5095357;28;20074;-82
2023/06/06 02:30:08;;;;;;;9.80;4.13;;;12.00;99.90;;;;;;5095121;28;20105;-82
2023/06/06 02:32:34;;;;;;;10.07;4.15;;;12.00;99.90;;;;;;5095110;28;20048;-81
2023/06/06 02:35:01;;;;;;;9.63;4.00;;;12.10;99.90;;;;;;5095150;28;20036;-82
2023/06/06 02:37:26;;;;;;;11.30;4.10;;;12.00;99.90;;;;;;5094893;28;20044;-82
2023/06/06 02:39:56;;;;;;;11.80;4.38;;;12.00;99.90;;;;;;5095206;28;20173;-81
2023/06/06 02:42:21;;;;;;;10.55;4.47;;;12.00;99.90;;;;;;5094787;28;20047;-81
2023/06/06 02:44:49;;;;;;;8.43;4.00;;;12.00;99.90;;;;;;5094454;28;20056;-81
2023/06/06 02:47:17;;;;;;;8.30;3.92;;;12.00;99.90;;;;;;5094641;28;20135;-81
2023/06/06 02:49:45;;;;;;;11.77;4.50;;;12.10;99.90;;;;;;5094603;28;20044;-81
2023/06/06 02:52:11;;;;;;;11.40;4.70;;;12.00;99.90;;;;;;5094879;28;20047;-81
2023/06/06 02:54:40;;;;;;;13.15;4.20;;;12.00;99.90;;;;;;5094949;28;20048;-81
2023/06/06 02:57:05;;;;;;;11.90;4.93;;;12.00;99.90;;;;;;5094555;28;20075;-81
2023/06/06 02:59:31;;;;;;;12.38;4.57;;;11.90;99.90;;;;;;5094650;28;20088;-81
2023/06/06 03:01:57;;;;;;;9.65;4.35;;;11.90;99.90;;;;;;5093858;28;20373;-81
2023/06/06 03:04:23;;;;;;;13.98;5.65;;;11.90;99.90;;;;;;5094206;28;20108;-81
2023/06/06 03:06:48;;;;;;;15.63;5.38;;;11.90;99.90;;;;;;5095552;28;20040;-82
2023/06/06 03:09:18;;;;;;;11.68;5.15;;;11.90;99.90;;;;;;5093735;28;20101;-81
2023/06/06 03:11:43;;;;;;;14.27;4.97;;;11.90;99.90;;;;;;5093703;28;20040;-82
2023/06/06 03:14:11;;;;;;;10.23;4.97;;;11.90;99.90;;;;;;5092569;28;20125;-81
2023/06/06 03:16:39;;;;;;;10.80;4.90;;;11.90;99.90;;;;;;5093471;28;20119;-81
2023/06/06 03:19:06;;;;;;;9.52;4.28;;;12.00;99.90;;;;;;5094194;28;20048;-81
2023/06/06 03:21:33;;;;;;;12.93;4.35;;;12.20;99.90;;;;;;5094015;28;20040;-81
2023/06/06 03:23:59;;;;;;;17.10;4.82;;;12.20;99.90;;;;;;5094038;28;20105;-81
2023/06/06 03:26:28;;;;;;;12.05;4.32;;;12.20;99.90;;;;;;5093747;28;20054;-81
2023/06/06 03:28:56;;;;;;;12.13;4.55;;;12.20;99.90;;;;;;5093597;28;20495;-81
2023/06/06 03:31:23;;;;;;;13.80;4.20;;;12.20;99.90;;;;;;5094861;28;20052;-81
2023/06/06 03:33:52;;;;;;;13.40;4.80;;;12.20;99.90;;;;;;5093780;28;20118;-82
2023/06/06 03:36:19;;;;;;;9.38;3.70;;;12.20;99.90;;;;;;5093584;28;20071;-81
2023/06/06 03:38:45;;;;;;;10.70;4.72;;;12.20;99.90;;;;;;5094770;28;20044;-81
2023/06/06 03:41:11;;;;;;;12.23;4.30;;;12.20;99.90;;;;;;5093461;28;20036;-81
2023/06/06 03:43:37;;;;;;;10.57;4.00;;;12.20;99.90;;;;;;5093416;28;20163;-82
2023/06/06 03:46:03;;;;;;;8.80;3.88;;;12.10;99.90;;;;;;5093334;28;20060;-81
2023/06/06 03:48:29;;;;;;;8.35;4.30;;;12.10;99.90;;;;;;5093209;28;20501;-81
2023/06/06 03:50:55;;;;;;;10.18;4.47;;;12.10;99.90;;;;;;5093267;28;20048;-81
2023/06/06 03:53:21;;;;;;;11.23;4.53;;;12.20;99.90;;;;;;5093277;28;20036;-81
2023/06/06 03:55:47;;;;;;;12.15;5.35;;;12.20;99.90;;;;;;5093467;28;20063;-82
2023/06/06 03:58:18;;;;;;;9.57;4.40;;;12.20;99.90;;;;;;5093071;28;20040;-81
2023/06/06 04:00:44;;;;;;;12.13;4.03;;;12.10;99.90;;;;;;5093214;28;20036;-82
2023/06/06 04:03:13;;;;;;;8.43;4.00;;;12.00;99.90;;;;;;5093053;28;20044;-82
2023/06/06 04:05:39;;;;;;;9.23;3.88;;;12.10;99.90;;;;;;5094577;28;20059;-81
2023/06/06 04:08:05;;;;;;;11.63;4.38;;;12.10;99.90;;;;;;5093114;28;20054;-81
2023/06/06 04:10:31;;;;;;;10.40;3.83;;;12.10;99.90;;;;;;5093001;28;20048;-81
2023/06/06 04:12:56;;;;;;;9.00;4.72;;;12.00;99.90;;;;;;5092434;28;20036;-81
2023/06/06 04:15:22;;;;;;;8.57;4.00;;;12.10;99.90;;;;;;5094235;28;20113;-81
2023/06/06 04:17:48;;;;;;;9.70;4.57;;;12.20;99.90;;;;;;5092842;28;20036;-81
2023/06/06 04:20:13;;;;;;;11.68;5.03;;;12.30;99.90;;;;;;5092796;28;20051;-81
2023/06/06 04:22:41;;;;;;;12.57;4.93;;;12.30;99.90;;;;;;5092920;28;20055;-81
2023/06/06 04:25:07;;;;;;;10.52;3.80;;;12.30;99.90;;;;;;5092741;28;20118;-81
2023/06/06 04:27:36;;;;;;;17.55;4.90;;;12.30;99.90;;;;;;5092884;28;20040;-81
2023/06/06 04:30:04;;;;;;;12.18;4.60;;;12.30;99.90;;;;;;5092579;28;20396;-81
2023/06/06 04:32:30;;;;;;;12.05;5.13;;;12.30;99.90;;;;;;5093683;28;20058;-81
2023/06/06 04:34:57;;;;;;;9.75;4.40;;;12.30;99.90;;;;;;5092692;28;20036;-82
2023/06/06 04:37:24;;;;;;;11.65;4.03;;;12.20;99.90;;;;;;5092534;28;20088;-82
2023/06/06 04:39:53;;;;;;;10.85;4.53;;;12.30;99.90;;;;;;5092500;28;20052;-82
2023/06/06 04:42:20;;;;;;;13.65;4.93;;;12.30;99.90;;;;;;5092695;28;20380;-82
2023/06/06 04:44:49;;;;;;;9.38;4.20;;;12.40;99.90;;;;;;5092527;28;20059;-81
2023/06/06 04:47:19;;;;;;;9.70;4.32;;;12.50;99.90;;;;;;5092382;28;20066;-81
2023/06/06 04:49:46;;;;;;;8.18;4.20;;;12.40;99.90;;;;;;5092215;28;20102;-81
2023/06/06 04:52:15;;;;;;;10.68;4.10;;;12.40;99.90;;;;;;5092388;28;20123;-82
2023/06/06 04:54:42;;;;;;;11.20;4.20;;;12.40;99.90;;;;;;5092240;28;20040;-82
2023/06/06 04:57:09;;;;;;;11.73;4.45;;;12.40;99.90;;;;;;5092108;28;20541;-81
2023/06/06 04:59:37;;;;;;;10.38;3.70;;;12.40;99.90;;;;;;5092353;28;20040;-81
2023/06/06 05:02:03;;;;;;;8.75;3.83;;;12.50;99.90;;;;;;5092141;28;20051;-82
2023/06/06 05:04:29;;;;;;;9.07;3.55;;;12.70;99.90;;;;;;5092435;28;20365;-82
2023/06/06 05:06:56;;;;;;;11.45;3.83;;;12.70;99.90;;;;;;5092106;28;20097;-82
2023/06/06 05:09:21;;;;;;;13.65;5.10;;;12.80;99.90;;;;;;5092104;28;20065;-82
2023/06/06 05:11:49;;;;;;;11.25;3.40;;;13.00;99.90;;;;;;5092010;28;20109;-82
2023/06/06 05:14:23;;;;;;;13.27;3.90;;;13.00;99.90;;;;;;5092290;28;20105;-82
2023/06/06 05:16:53;;;;;;;11.90;3.90;;;13.20;99.90;;;;;;5091945;28;20115;-82
2023/06/06 05:19:20;;;;;;;13.55;4.15;;;13.30;99.90;;;;;;5092102;28;20406;-81
2023/06/06 05:21:47;;;;;;;16.65;3.63;;;13.40;99.90;;;;;;5091946;28;20032;-81
2023/06/06 05:24:14;;;;;;;10.35;3.42;;;13.60;99.90;;;;;;5094102;28;20052;-81
2023/06/06 05:26:40;;;;;;;12.52;4.18;;;13.70;99.90;;;;;;5096172;28;20115;-82
2023/06/06 05:29:06;;;;;;;11.55;3.58;;;13.80;99.90;;;;;;5096030;28;20142;-81
2023/06/06 05:31:33;;;;;;;13.45;3.63;;;13.80;99.90;;;;;;5096129;28;20119;-82
2023/06/06 05:34:00;;;;;;;12.23;4.78;;;13.80;99.90;;;;;;5095861;28;20056;-82
2023/06/06 05:36:26;;;;;;;14.13;4.03;;;13.90;99.90;;;;;;5097117;28;20119;-81
2023/06/06 05:38:52;;;;;;;13.63;3.85;;;13.80;99.90;;;;;;5096034;28;20115;-80
2023/06/06 05:41:20;;;;;;;8.77;3.35;;;13.90;99.90;;;;;;5095848;28;20409;-81
2023/06/06 05:43:47;;;;;;;8.18;3.58;;;14.00;99.90;;;;;;5095737;28;20081;-82
2023/06/06 05:46:14;;;;;;;23.83;5.28;;;14.00;99.90;;;;;;5095532;28;20087;-81
2023/06/06 05:48:41;;;;;;;18.95;5.18;;;13.90;99.90;;;;;;5095866;28;20117;-82
2023/06/06 05:51:08;;;;;;;15.50;3.72;;;14.10;99.90;;;;;;5097016;28;20407;-82
2023/06/06 05:53:34;;;;;;;14.55;3.67;;;14.00;99.90;;;;;;5096958;28;20109;-82
2023/06/06 05:56:00;;;;;;;8.48;3.90;;;14.20;99.90;;;;;;5095661;28;20044;-82
2023/06/06 05:58:26;;;;;;;13.05;3.85;;;14.40;99.90;;;;;;5095667;28;20574;-83
2023/06/06 06:00:51;;;;;;;10.48;3.40;;;14.50;99.90;;;;;;5095694;28;20533;-82
2023/06/06 06:03:17;;;;;;;9.63;3.45;;;14.70;99.90;;;;;;5095455;28;20461;-82
2023/06/06 06:05:43;;;;;;;8.85;3.90;;;14.90;99.90;;;;;;5095232;28;20167;-81
2023/06/06 06:08:09;;;;;;;11.75;3.85;;;14.90;99.90;;;;;;5095362;28;20127;-81
2023/06/06 06:10:36;;;;;;;13.00;3.58;;;15.00;99.90;;;;;;5095716;28;20044;-81
2023/06/06 06:13:03;;;;;;;17.23;3.75;;;15.10;99.90;;;;;;5095378;28;20097;-79
2023/06/06 06:15:33;;;;;;;13.98;4.03;;;15.20;99.90;;;;;;5095401;28;20050;-81
2023/06/06 06:18:03;;;;;;;18.65;5.03;;;15.30;99.90;;;;;;5095037;28;20055;-80
2023/06/06 06:20:29;;;;;;;29.98;4.43;;;15.50;99.90;;;;;;5095209;28;20043;-81
2023/06/06 06:22:55;;;;;;;10.70;3.20;;;15.60;99.90;;;;;;5095198;28;20047;-81
2023/06/06 06:25:20;;;;;;;10.40;3.50;;;15.60;99.90;;;;;;5113003;28;20051;-81
2023/06/06 06:27:50;;;;;;;18.45;3.45;;;15.60;99.90;;;;;;5115351;28;20039;-78
2023/06/06 06:30:18;;;;;;;12.70;3.90;;;15.70;99.90;;;;;;5115144;28;20073;-78
2023/06/06 06:32:44;;;;;;;12.85;3.33;;;15.80;99.90;;;;;;5115325;28;20439;-90
2023/06/06 06:35:10;;;;;;;20.50;4.30;;;15.90;99.90;;;;;;5114262;28;20051;-81
2023/06/06 06:37:37;;;;;;;15.32;4.15;;;15.90;99.90;;;;;;5114978;28;20047;-80
2023/06/06 06:40:12;;;;;;;13.88;4.07;;;15.90;99.90;;;;;;5116029;28;20173;-80
2023/06/06 06:42:43;;;;;;;13.10;4.18;;;15.90;99.90;;;;;;5115071;28;20048;-79
2023/06/06 06:45:12;;;;;;;19.77;4.30;;;16.00;99.90;;;;;;5114675;28;20122;-80
2023/06/06 06:47:40;;;;;;;7.57;3.42;;;16.10;99.90;;;;;;5114618;28;20514;-80
2023/06/06 06:50:07;;;;;;;10.57;3.50;;;16.30;99.90;;;;;;5114826;28;20384;-81
2023/06/06 06:52:35;;;;;;;13.05;3.95;;;16.30;99.90;;;;;;5114005;28;20044;-82
2023/06/06 06:55:04;;;;;;;10.93;3.75;;;16.10;99.90;;;;;;5114850;28;20044;-80
2023/06/06 06:57:30;;;;;;;12.02;4.72;;;16.20;99.90;;;;;;5115736;27;20402;-80
2023/06/06 06:59:57;;;;;;;18.25;5.18;;;16.30;99.90;;;;;;5114447;28;20044;-77
2023/06/06 07:02:24;;;;;;;12.55;4.20;;;16.40;99.90;;;;;;5115756;28;20082;-80
2023/06/06 07:04:50;;;;;;;10.25;3.72;;;16.40;99.90;;;;;;5114706;28;20240;-80
2023/06/06 07:07:16;;;;;;;19.38;4.00;;;16.20;99.90;;;;;;5114211;28;20081;-79
2023/06/06 07:09:43;;;;;;;17.30;4.50;;;16.30;99.90;;;;;;5114267;28;20501;-80
2023/06/06 07:12:10;;;;;;;10.50;3.83;;;16.50;99.90;;;;;;5115618;28;20114;-80
2023/06/06 07:14:36;;;;;;;7.57;3.55;;;16.60;99.90;;;;;;5114537;28;20490;-82
2023/06/06 07:17:03;;;;;;;6.85;3.38;;;16.70;99.90;;;;;;5114108;28;20043;-79
2023/06/06 07:19:28;;;;;;;12.98;3.75;;;16.60;99.90;;;;;;5114422;28;20439;-78
2023/06/06 07:21:56;;;;;;;8.27;4.15;;;16.80;99.90;;;;;;5114272;28;20072;-79
2023/06/06 07:24:22;;;;;;;8.80;3.53;;;16.80;99.90;;;;;;5114070;28;20081;-81
2023/06/06 07:26:48;;;;;;;7.60;3.55;;;17.00;99.90;;;;;;5115406;28;20044;-85
2023/06/06 07:29:13;;;;;;;12.98;4.28;;;17.00;99.90;;;;;;5115140;28;20058;-78
2023/06/06 07:31:39;;;;;;;11.98;3.63;;;17.00;99.90;;;;;;5115235;28;20039;-80
2023/06/06 07:34:08;;;;;;;15.80;4.70;;;16.80;99.90;;;;;;5115404;27;20455;-80
2023/06/06 07:36:36;;;;;;;7.07;3.60;;;17.10;99.90;;;;;;5097088;28;20054;-80
2023/06/06 07:39:02;;;;;;;8.15;3.65;;;17.30;99.90;;;;;;5115254;27;20039;-81
2023/06/06 07:41:30;;;;;;;8.82;4.32;;;17.30;99.90;;;;;;5115122;28;20465;-80
2023/06/06 07:43:55;;;;;;;9.07;3.97;;;17.50;99.90;;;;;;5113984;28;20051;-81
2023/06/06 07:46:25;;;;;;;10.48;3.90;;;16.90;99.90;;;;;;5113096;28;20078;-81
2023/06/06 07:48:51;;;;;;;8.27;4.30;;;17.10;99.90;;;;;;5114123;28;20054;-82
2023/06/06 07:51:18;;;;;;;10.48;4.20;;;17.20;99.90;;;;;;5113610;28;20040;-81
2023/06/06 07:53:43;;;;;;;9.05;4.85;;;17.40;99.90;;;;;;5113643;28;20043;-84
2023/06/06 07:56:10;;;;;;;10.48;4.43;;;17.30;99.90;;;;;;5113484;28;20398;-82
2023/06/06 07:58:46;;;;;;;12.23;4.25;;;17.40;99.90;;;;;;5115079;28;20035;-81
2023/06/06 08:01:13;;;;;;;12.73;5.10;;;17.40;99.90;;;;;;5113446;28;20051;-82
2023/06/06 08:03:39;;;;;;;14.48;4.78;;;17.40;99.90;;;;;;5113721;28;20054;-80
2023/06/06 08:06:05;;;;;;;14.45;4.90;;;17.40;99.90;;;;;;5113713;28;20063;-80
2023/06/06 08:08:31;;;;;;;15.38;4.72;;;17.60;99.90;;;;;;5113501;28;20040;-82
2023/06/06 08:10:57;;;;;;;14.60;4.53;;;17.70;99.90;;;;;;5113338;28;20091;-81
2023/06/06 08:13:23;;;;;;;18.40;5.82;;;17.70;99.90;;;;;;5113540;28;20126;-81
2023/06/06 08:15:48;;;;;;;11.05;4.30;;;17.70;99.90;;;;;;5113538;28;20043;-81
2023/06/06 08:18:14;;;;;;;23.35;5.75;;;17.70;99.90;;;;;;5113119;28;20039;-80
2023/06/06 08:20:40;;;;;;;16.25;5.28;;;17.80;99.90;;;;;;5114667;28;20113;-81
2023/06/06 08:23:06;;;;;;;17.27;5.18;;;17.70;99.90;;;;;;5113068;28;20043;-80
2023/06/06 08:25:39;;;;;;;14.70;4.90;;;17.80;99.90;;;;;;5113505;28;20124;-81
2023/06/06 08:28:05;;;;;;;11.10;4.80;;;17.90;99.90;;;;;;5113227;28;20526;-81
2023/06/06 08:30:31;;;;;;;15.50;4.30;;;17.80;99.90;;;;;;5113282;28;20043;-81
2023/06/06 08:32:56;;;;;;;14.38;4.47;;;17.00;99.90;;;;;;5113164;28;20441;-81
2023/06/06 08:35:24;;;;;;;11.88;4.80;;;17.40;99.90;;;;;;5112937;28;20059;-81
2023/06/06 08:37:50;;;;;;;15.23;5.65;;;17.40;99.90;;;;;;5113003;28;20398;-81
2023/06/06 08:40:18;;;;;;;11.05;4.20;;;17.40;99.90;;;;;;5112848;28;20475;-81
2023/06/06 08:42:48;;;;;;;14.88;4.75;;;17.40;99.90;;;;;;5112769;28;20399;-81
2023/06/06 08:45:20;;;;;;;8.77;4.50;;;17.50;99.90;;;;;;5112818;28;20051;-81
2023/06/06 08:47:48;;;;;;;7.53;4.13;;;17.60;99.90;;;;;;5112832;28;20051;-81
2023/06/06 08:50:15;;;;;;;8.75;4.30;;;17.70;99.90;;;;;;5112789;28;20044;-81
2023/06/06 08:52:42;;;;;;;17.83;4.57;;;17.80;99.90;;;;;;5112882;28;20051;-81
2023/06/06 08:55:08;;;;;;;19.35;6.03;;;17.80;99.90;;;;;;5112900;28;20074;-81
2023/06/06 08:57:41;;;;;;;13.93;5.00;;;17.80;99.90;;;;;;5113102;28;20054;-81
2023/06/06 09:00:11;;;;;;;14.02;5.60;;;17.30;99.90;;;;;;5113995;28;20173;-81
2023/06/06 09:02:41;;;;;;;13.32;4.80;;;17.40;99.90;;;;;;5112709;28;20048;-80
2023/06/06 09:05:13;;;;;;;14.05;5.13;;;17.70;99.90;;;;;;5113018;28;20035;-81
2023/06/06 09:07:40;;;;;;;19.93;5.90;;;17.70;99.90;;;;;;5112695;28;20050;-81
2023/06/06 09:10:06;;;;;;;12.38;4.88;;;17.90;99.90;;;;;;5112424;28;20085;-81
2023/06/06 09:12:48;;;;;;;17.15;5.60;;;17.80;99.90;;;;;;5112430;28;20483;-81
2023/06/06 09:15:14;;;;;;;14.43;5.40;;;17.80;99.90;;;;;;5112823;28;20043;-81
2023/06/06 09:17:42;;;;;;;13.48;4.68;;;18.00;99.90;;;;;;5112716;28;20130;-81
2023/06/06 09:20:17;;;;;;;19.13;5.25;;;18.00;99.90;;;;;;5112678;28;20103;-81
2023/06/06 09:22:45;;;;;;;14.82;4.95;;;18.20;99.90;;;;;;5112692;28;20079;-81
2023/06/06 09:25:17;;;;;;;24.88;5.68;;;18.20;99.90;;;;;;5112715;28;20036;-80
2023/06/06 09:27:44;;;;;;;15.93;5.50;;;18.20;99.90;;;;;;5112413;28;20048;-81
2023/06/06 09:30:23;;;;;;;10.88;4.70;;;18.00;99.90;;;;;;5113477;28;20051;-81
2023/06/06 09:32:57;;;;;;;14.02;4.95;;;17.90;99.90;;;;;;5112619;28;20048;-81
2023/06/06 09:35:23;;;;;;;10.45;5.00;;;17.60;99.90;;;;;;5112318;28;20047;-81
2023/06/06 09:37:49;;;;;;;21.60;6.60;;;17.70;99.90;;;;;;5113765;28;20055;-80
2023/06/06 09:40:18;;;;;;;10.98;4.53;;;17.90;99.90;;;;;;5112497;28;20048;-80
2023/06/06 09:42:48;;;;;;;10.80;4.70;;;18.00;99.90;;;;;;5112369;28;20130;-80
2023/06/06 09:45:19;;;;;;;13.27;5.13;;;18.10;99.90;;;;;;5112105;28;20051;-80
2023/06/06 09:47:48;;;;;;;10.63;4.50;;;17.80;99.90;;;;;;5112357;28;20101;-80
2023/06/06 09:50:16;;;;;;;10.40;4.22;;;17.80;99.90;;;;;;5112098;28;20044;-80
2023/06/06 09:52:42;;;;;;;13.07;5.10;;;17.70;99.90;;;;;;5112462;28;20043;-81
2023/06/06 09:55:11;;;;;;;9.82;4.50;;;17.40;99.90;;;;;;5112113;28;20047;-81
2023/06/06 09:57:39;;;;;;;13.75;5.97;;;17.60;99.90;;;;;;5113309;28;20040;-81
2023/06/06 10:00:15;;;;;;;15.88;5.68;;;18.00;99.90;;;;;;5112166;28;20048;-81
2023/06/06 10:02:47;;;;;;;12.25;5.13;;;17.80;99.90;;;;;;5112329;28;20051;-83
2023/06/06 10:05:15;;;;;;;10.48;5.47;;;17.90;99.90;;;;;;5112034;28;20052;-81
2023/06/06 10:07:45;;;;;;;15.50;5.55;;;18.00;99.90;;;;;;5112306;28;20483;-81
2023/06/06 10:10:16;;;;;;;9.35;4.50;;;17.80;99.90;;;;;;5112323;28;20070;-81
2023/06/06 10:12:45;;;;;;;11.18;5.13;;;18.30;99.90;;;;;;5115647;28;20471;-81
2023/06/06 10:15:12;;;;;;;9.05;5.28;;;19.00;99.90;;;;;;5115772;28;20485;-81
2023/06/06 10:17:40;;;;;;;13.40;4.90;;;18.60;99.90;;;;;;5115803;28;20124;-81
2023/06/06 10:20:11;;;;;;;10.88;4.55;;;18.50;99.90;;;;;;5115555;28;20047;-81
2023/06/06 10:22:41;;;;;;;13.73;5.57;;;18.90;99.90;;;;;;5116971;27;20039;-81
2023/06/06 10:25:12;;;;;;;17.10;5.10;;;18.30;99.90;;;;;;5115640;28;20048;-81
2023/06/06 10:28:12;;;;;;;12.67;5.03;;;17.80;99.90;;;;;;5115430;28;20402;-81
2023/06/06 10:30:45;;;;;;;16.50;4.90;;;18.00;99.90;;;;;;5115478;28;20055;-81
2023/06/06 10:33:44;;;;;;;12.45;4.90;;;18.40;99.90;;;;;;5116630;28;20126;-81
2023/06/06 10:36:15;;;;;;;16.67;6.03;;;18.20;99.90;;;;;;5115548;28;20152;-80
2023/06/06 10:39:01;;;;;;;19.20;5.10;;;18.80;99.90;;;;;;5115417;28;20047;-81
2023/06/06 10:41:41;;;;;;;14.40;5.10;;;18.80;99.90;;;;;;5115176;28;20047;-81
2023/06/06 10:44:08;;;;;;;10.27;4.88;;;18.90;99.90;;;;;;5115042;28;20444;-81
2023/06/06 10:46:34;;;;;;;11.00;4.72;;;19.00;99.90;;;;;;5114880;28;20060;-81
2023/06/06 10:49:02;;;;;;;10.68;4.85;;;19.10;99.90;;;;;;5114768;28;20399;-81
2023/06/06 10:51:32;;;;;;;13.35;5.18;;;19.20;99.90;;;;;;5116495;27;20082;-81
2023/06/06 10:54:13;;;;;;;10.20;4.40;;;19.30;99.90;;;;;;5115118;28;20039;-80
2023/06/06 10:56:51;;;;;;;10.68;5.07;;;18.90;99.90;;;;;;5115094;28;20100;-81
2023/06/06 10:59:16;;;;;;;9.60;4.60;;;19.10;99.90;;;;;;5115017;28;20467;-82
2023/06/06 11:01:44;;;;;;;12.27;5.72;;;18.40;99.90;;;;;;5116193;28;20052;-81
2023/06/06 11:04:21;;;;;;;11.68;5.25;;;18.70;99.90;;;;;;5114909;28;20457;-81
2023/06/06 11:06:58;;;;;;;10.98;5.35;;;19.20;99.90;;;;;;5114883;28;20406;-81
2023/06/06 11:09:31;;;;;;;10.20;4.82;;;18.60;99.90;;;;;;5114758;28;20482;-81
2023/06/06 11:12:15;;;;;;;13.15;5.00;;;19.30;99.90;;;;;;5115749;27;20509;-80
2023/06/06 11:15:02;;;;;;;8.55;4.70;;;19.50;99.90;;;;;;5115934;28;20432;-80
2023/06/06 11:17:49;;;;;;;7.05;4.18;;;19.10;99.90;;;;;;5115791;28;20066;-80
2023/06/06 11:20:20;;;;;;;14.18;5.30;;;18.70;99.90;;;;;;5114464;28;20043;-80
2023/06/06 11:23:03;;;;;;;13.57;5.07;;;19.00;99.90;;;;;;5114007;28;20043;-80
2023/06/06 11:25:30;;;;;;;12.77;4.72;;;19.30;99.90;;;;;;5114249;28;20469;-80
2023/06/06 11:27:57;;;;;;;12.15;4.72;;;19.60;99.90;;;;;;5114228;28;20217;-80
2023/06/06 11:30:24;;;;;;;12.20;4.13;;;19.60;99.90;;;;;;5114299;28;20055;-81
2023/06/06 11:32:53;;;;;;;11.52;3.88;;;19.70;99.90;;;;;;5114345;28;20048;-81
2023/06/06 11:35:21;;;;;;;14.48;4.53;;;20.10;99.90;;;;;;5114341;28;20552;-80
2023/06/06 11:37:47;;;;;;;16.08;4.85;;;19.60;99.90;;;;;;5114004;28;20126;-80
2023/06/06 11:40:14;;;;;;;7.95;4.15;;;19.60;99.90;;;;;;5115371;27;20137;-81
2023/06/06 11:42:44;;;;;;;8.27;4.28;;;19.90;99.90;;;;;;5113919;28;20483;-80
2023/06/06 11:45:19;;;;;;;14.75;5.13;;;20.00;99.90;;;;;;5114814;28;20526;-81
2023/06/06 11:47:45;;;;;;;13.88;4.15;;;19.40;99.90;;;;;;5113861;28;20548;-81
2023/06/06 11:50:12;;;;;;;7.88;4.43;;;18.60;99.90;;;;;;5113735;28;20047;-81
2023/06/06 11:52:49;;;;;;;8.40;4.70;;;19.30;99.90;;;;;;5113661;28;20123;-80
2023/06/06 11:55:15;;;;;;;10.00;4.43;;;19.50;99.90;;;;;;5113964;28;20083;-81
2023/06/06 11:57:41;;;;;;;12.40;4.43;;;19.30;99.90;;;;;;5113852;28;20051;-81
2023/06/06 12:00:14;;;;;;;12.23;4.47;;;19.80;99.90;;;;;;5113520;28;20402;-80
2023/06/06 12:02:40;;;;;;;15.60;5.10;;;19.80;99.90;;;;;;5113537;28;20047;-80
2023/06/06 12:05:24;;;;;;;12.30;3.92;;;19.80;99.90;;;;;;5113434;28;20075;-80
2023/06/06 12:07:50;;;;;;;10.80;4.20;;;20.10;99.90;;;;;;5113631;28;20051;-80
2023/06/06 12:10:28;;;;;;;13.73;4.10;;;20.10;99.90;;;;;;5113397;28;20077;-80
2023/06/06 12:12:57;;;;;;;12.32;4.28;;;20.20;99.90;;;;;;5113322;28;20086;-80
2023/06/06 12:15:49;;;;;;;12.27;4.20;;;20.10;99.90;;;;;;5113243;28;20470;-80
2023/06/06 12:18:14;;;;;;;24.02;4.72;;;20.00;99.90;;;;;;5113540;28;20071;-81
2023/06/06 12:20:40;;;;;;;20.05;5.00;;;20.20;99.90;;;;;;5113253;28;20078;-81
2023/06/06 12:23:06;;;;;;;14.13;4.65;;;20.20;99.90;;;;;;5113153;28;20040;-81
2023/06/06 12:25:31;;;;;;;15.88;4.93;;;20.10;99.90;;;;;;5113104;28;20048;-81
2023/06/06 12:28:10;;;;;;;14.07;4.45;;;20.50;99.90;;;;;;5114462;28;20123;-81
2023/06/06 12:30:36;;;;;;;15.07;4.65;;;20.50;99.90;;;;;;5112999;28;20079;-81
2023/06/06 12:33:02;;;;;;;15.10;5.30;;;20.70;99.90;;;;;;5112657;28;20093;-80
2023/06/06 12:35:28;;;;;;;25.98;6.00;;;20.40;99.90;;;;;;5113387;28;20043;-80
2023/06/06 12:38:01;;;;;;;18.85;5.18;;;20.60;99.90;;;;;;5113323;28;20051;-80
2023/06/06 12:40:33;;;;;;;11.18;4.97;;;20.60;99.90;;;;;;5112876;28;20165;-80
2023/06/06 12:43:00;;;;;;;;;;;20.40;99.90;;;;;;5113417;28;20039;-79
2023/06/06 12:45:27;;;;;;;17.98;5.18;;;20.40;99.90;;;;;;5112877;28;19942;-80
2023/06/06 12:47:57;;;;;;;12.48;4.45;;;20.50;99.90;;;;;;5112768;28;20050;-80